createdAt,value
2018-07-23T00:01:14.514Z,18.50
2018-07-23T00:03:59.642Z,18.50
2018-07-23T00:09:33.514Z,18.60
2018-07-23T00:12:03.678Z,18.50
2018-07-23T00:14:33.757Z,18.50
2018-07-23T00:17:03.902Z,18.50
2018-07-23T00:22:12.953Z,18.40
2018-07-23T00:24:56.418Z,18.40
2018-07-23T00:27:26.478Z,18.40
2018-07-23T00:32:43.186Z,18.30
2018-07-23T00:35:24.971Z,18.30
2018-07-23T00:37:55.102Z,18.30
2018-07-23T00:40:42.097Z,18.20
2018-07-23T00:43:12.210Z,18.20
2018-07-23T00:45:54.151Z,18.10
2018-07-23T00:48:24.189Z,18.00
2018-07-23T00:51:06.692Z,18.00
2018-07-23T00:53:36.802Z,17.90
2018-07-23T00:56:23.351Z,17.80
2018-07-23T00:58:53.449Z,17.80
2018-07-23T01:01:39.690Z,17.80
2018-07-23T01:04:09.778Z,17.80
2018-07-23T01:06:51.482Z,17.80
2018-07-23T01:09:21.539Z,17.70
2018-07-23T01:12:05.050Z,17.60
2018-07-23T01:14:35.169Z,17.60
2018-07-23T01:17:19.818Z,17.60
2018-07-23T01:19:50.082Z,17.60
2018-07-23T01:22:38.496Z,17.50
2018-07-23T01:25:08.614Z,17.40
2018-07-23T01:27:50.146Z,17.40
2018-07-23T01:30:20.267Z,17.30
2018-07-23T01:33:02.565Z,17.30
2018-07-23T01:35:32.647Z,17.30
2018-07-23T01:38:17.333Z,17.20
2018-07-23T01:40:47.422Z,17.20
2018-07-23T01:43:32.562Z,17.10
2018-07-23T01:46:03.430Z,17.10
2018-07-23T01:51:15.223Z,17.00
2018-07-23T01:54:03.954Z,17.00
2018-07-23T01:56:40.906Z,17.00
2018-07-23T01:59:15.750Z,17.00
2018-07-23T02:01:45.775Z,17.10
2018-07-23T02:04:37.199Z,17.10
2018-07-23T02:07:08.182Z,17.10
2018-07-23T02:09:46.714Z,17.10
2018-07-23T02:12:16.942Z,17.20
2018-07-23T02:14:58.414Z,17.20
2018-07-23T02:17:28.489Z,17.10
2018-07-23T02:20:17.019Z,17.20
2018-07-23T02:22:47.123Z,17.10
2018-07-23T02:25:30.170Z,17.10
2018-07-23T02:28:00.638Z,17.00
2018-07-23T02:30:43.424Z,17.00
2018-07-23T02:35:58.693Z,16.90
2018-07-23T02:38:28.750Z,16.90
2018-07-23T02:41:15.811Z,16.80
2018-07-23T02:43:45.989Z,16.80
2018-07-23T02:46:31.215Z,16.80
2018-07-23T02:49:01.835Z,16.80
2018-07-23T02:51:43.518Z,16.70
2018-07-23T02:54:13.770Z,16.70
2018-07-23T02:56:55.174Z,16.70
2018-07-23T02:59:25.232Z,16.70
2018-07-23T03:02:09.599Z,16.70
2018-07-23T03:04:39.682Z,16.80
2018-07-23T03:07:27.981Z,16.80
2018-07-23T03:09:58.103Z,16.70
2018-07-23T03:12:40.033Z,16.70
2018-07-23T03:15:10.431Z,16.70
2018-07-23T03:17:54.933Z,16.70
2018-07-23T03:20:25.090Z,16.70
2018-07-23T03:23:05.778Z,16.70
2018-07-23T03:25:35.949Z,16.70
2018-07-23T03:28:20.411Z,16.70
2018-07-23T03:30:50.470Z,16.70
2018-07-23T03:33:39.391Z,16.80
2018-07-23T03:36:09.534Z,16.80
2018-07-23T03:38:48.542Z,16.80
2018-07-23T03:41:18.698Z,16.80
2018-07-23T03:44:04.766Z,16.90
2018-07-23T03:46:34.862Z,16.90
2018-07-23T03:49:18.310Z,17.00
2018-07-23T03:51:48.430Z,17.10
2018-07-23T03:54:32.130Z,17.20
2018-07-23T03:57:02.190Z,17.20
2018-07-23T03:59:51.862Z,17.20
2018-07-23T04:02:22.003Z,17.30
2018-07-23T04:04:56.406Z,17.30
2018-07-23T04:07:26.517Z,17.30
2018-07-23T04:10:02.309Z,17.40
2018-07-23T04:12:32.411Z,17.50
2018-07-23T04:15:02.574Z,17.60
2018-07-23T04:17:32.665Z,17.60
2018-07-23T04:20:02.739Z,17.70
2018-07-23T04:22:33.710Z,17.80
2018-07-23T04:25:03.946Z,17.80
2018-07-23T04:27:34.021Z,17.80
2018-07-23T04:30:04.302Z,17.80
2018-07-23T04:32:34.349Z,17.70
2018-07-23T04:35:04.536Z,17.80
2018-07-23T04:37:34.562Z,17.70
2018-07-23T04:40:04.842Z,17.80
2018-07-23T04:42:34.943Z,17.80
2018-07-23T04:45:05.300Z,17.80
2018-07-23T04:47:35.409Z,17.80
2018-07-23T04:50:05.697Z,17.90
2018-07-23T04:52:36.788Z,17.90
2018-07-23T04:55:06.899Z,18.00
2018-07-23T04:57:37.182Z,18.10
2018-07-23T05:00:07.381Z,18.20
2018-07-23T05:02:37.453Z,18.30
2018-07-23T05:05:07.570Z,18.30
2018-07-23T05:07:39.042Z,18.40
2018-07-23T05:10:09.114Z,18.50
2018-07-23T05:12:39.190Z,18.60
2018-07-23T05:15:09.372Z,18.80
2018-07-23T05:17:39.510Z,18.80
2018-07-23T05:20:09.720Z,18.90
2018-07-23T05:22:39.802Z,18.90
2018-07-23T05:25:09.966Z,19.10
2018-07-23T05:27:39.990Z,19.20
2018-07-23T05:30:10.158Z,19.30
2018-07-23T05:32:40.246Z,19.30
2018-07-23T05:35:10.406Z,19.40
2018-07-23T05:37:40.530Z,19.50
2018-07-23T05:40:10.638Z,19.70
2018-07-23T05:42:40.720Z,19.80
2018-07-23T05:45:10.863Z,19.90
2018-07-23T05:47:40.982Z,20.00
2018-07-23T05:50:11.103Z,20.10
2018-07-23T05:52:41.469Z,20.10
2018-07-23T05:55:11.589Z,20.10
2018-07-23T05:57:41.677Z,20.20
2018-07-23T06:00:12.055Z,20.30
2018-07-23T06:02:42.124Z,20.30
2018-07-23T06:05:13.517Z,20.40
2018-07-23T06:07:43.607Z,20.50
2018-07-23T06:10:13.735Z,20.70
2018-07-23T06:12:43.798Z,20.90
2018-07-23T06:15:13.917Z,21.00
2018-07-23T06:17:43.990Z,21.10
2018-07-23T06:20:14.091Z,21.20
2018-07-23T06:22:44.399Z,21.20
2018-07-23T06:25:14.542Z,21.30
2018-07-23T06:27:44.632Z,21.40
2018-07-23T06:30:14.836Z,21.40
2018-07-23T06:32:44.959Z,21.50
2018-07-23T06:35:15.059Z,21.60
2018-07-23T06:37:45.151Z,21.70
2018-07-23T06:40:15.358Z,21.80
2018-07-23T06:42:45.451Z,21.90
2018-07-23T06:45:15.540Z,21.90
2018-07-23T06:47:46.506Z,21.80
2018-07-23T06:50:16.639Z,21.90
2018-07-23T06:52:46.823Z,21.80
2018-07-23T06:55:16.982Z,21.80
2018-07-23T06:57:47.058Z,21.80
2018-07-23T07:00:17.112Z,21.90
2018-07-23T07:02:48.570Z,21.90
2018-07-23T07:05:18.639Z,21.80
2018-07-23T07:07:48.745Z,21.90
2018-07-23T07:10:18.885Z,22.10
2018-07-23T07:12:49.009Z,22.10
2018-07-23T07:15:19.287Z,22.30
2018-07-23T07:17:49.380Z,22.30
2018-07-23T07:20:19.811Z,22.40
2018-07-23T07:22:49.851Z,22.50
2018-07-23T07:25:19.934Z,22.50
2018-07-23T07:27:49.995Z,22.50
2018-07-23T07:32:49.618Z,22.90
2018-07-23T07:35:19.794Z,23.10
2018-07-23T07:38:15.679Z,23.20
2018-07-23T07:40:52.192Z,23.20
2018-07-23T07:43:22.334Z,23.20
2018-07-23T07:45:56.624Z,23.30
2018-07-23T07:48:27.307Z,23.40
2018-07-23T07:50:57.590Z,23.60
2018-07-23T07:53:34.074Z,23.50
2018-07-23T07:56:04.235Z,23.60
2018-07-23T07:58:34.265Z,23.70
2018-07-23T08:01:04.398Z,23.70
2018-07-23T08:03:34.434Z,23.80
2018-07-23T08:06:04.535Z,23.70
2018-07-23T08:08:34.596Z,23.70
2018-07-23T08:11:04.835Z,23.80
2018-07-23T08:13:34.978Z,23.90
2018-07-23T08:16:06.807Z,24.00
2018-07-23T08:18:36.858Z,24.20
2018-07-23T08:21:07.187Z,24.10
2018-07-23T08:23:37.467Z,24.30
2018-07-23T08:26:07.586Z,24.20
2018-07-23T08:28:38.008Z,24.30
2018-07-23T08:31:08.121Z,24.40
2018-07-23T08:33:38.166Z,24.40
2018-07-23T08:36:08.320Z,24.40
2018-07-23T08:38:38.367Z,24.50
2018-07-23T08:41:08.471Z,24.50
2018-07-23T08:43:38.489Z,24.50
2018-07-23T08:46:08.582Z,24.70
2018-07-23T08:48:38.679Z,24.80
2018-07-23T08:51:08.821Z,24.60
2018-07-23T08:53:38.896Z,24.70
2018-07-23T08:56:09.151Z,24.70
2018-07-23T09:01:08.558Z,25.00
2018-07-23T09:03:38.626Z,25.10
2018-07-23T09:06:08.670Z,25.30
2018-07-23T09:08:38.724Z,25.20
2018-07-23T09:11:08.782Z,25.10
2018-07-23T09:13:43.410Z,25.10
2018-07-23T09:16:13.526Z,25.20
2018-07-23T09:18:44.549Z,25.20
2018-07-23T09:21:18.937Z,25.50
2018-07-23T09:23:49.034Z,25.30
2018-07-23T09:26:19.135Z,25.50
2018-07-23T09:28:49.372Z,25.40
2018-07-23T09:31:19.393Z,25.30
2018-07-23T09:33:49.436Z,25.30
2018-07-23T09:36:19.479Z,25.40
2018-07-23T09:38:49.550Z,25.50
2018-07-23T09:41:19.586Z,25.70
2018-07-23T09:46:19.446Z,26.00
2018-07-23T09:48:49.515Z,25.80
2018-07-23T09:51:19.530Z,25.70
2018-07-23T09:53:49.565Z,25.90
2018-07-23T09:56:19.608Z,26.00
2018-07-23T09:58:49.698Z,25.90
2018-07-23T10:01:20.356Z,25.80
2018-07-23T10:03:50.425Z,25.80
2018-07-23T10:06:20.487Z,25.90
2018-07-23T10:08:50.564Z,26.00
2018-07-23T10:11:20.826Z,26.20
2018-07-23T10:13:50.858Z,26.20
2018-07-23T10:16:20.898Z,26.10
2018-07-23T10:18:51.051Z,26.20
2018-07-23T10:21:21.118Z,26.40
2018-07-23T10:23:51.178Z,26.50
2018-07-23T10:26:37.845Z,26.50
2018-07-23T10:29:08.394Z,26.40
2018-07-23T10:31:38.586Z,26.40
2018-07-23T10:34:27.436Z,26.60
2018-07-23T10:36:57.720Z,26.40
2018-07-23T10:39:27.778Z,26.40
2018-07-23T10:41:57.773Z,26.70
2018-07-23T10:44:28.930Z,26.90
2018-07-23T10:46:58.945Z,27.20
2018-07-23T10:49:29.005Z,27.20
2018-07-23T10:51:59.004Z,27.10
2018-07-23T10:57:20.845Z,27.30
2018-07-23T10:59:50.903Z,27.30
2018-07-23T11:02:20.906Z,27.00
2018-07-23T11:04:51.912Z,27.00
2018-07-23T11:12:25.042Z,27.40
2018-07-23T11:14:55.427Z,27.60
2018-07-23T11:17:25.457Z,27.60
2018-07-23T11:19:55.595Z,28.10
2018-07-23T11:22:25.667Z,27.60
2018-07-23T11:24:55.782Z,27.90
2018-07-23T11:27:26.116Z,28.00
2018-07-23T11:29:56.142Z,28.30
2018-07-23T11:35:01.389Z,28.50
2018-07-23T11:37:32.075Z,28.70
2018-07-23T11:40:02.130Z,28.50
2018-07-23T11:42:32.267Z,28.50
2018-07-23T11:45:02.305Z,29.00
2018-07-23T11:47:32.414Z,29.20
2018-07-23T11:50:02.756Z,28.60
2018-07-23T11:52:32.974Z,28.80
2018-07-23T11:55:03.044Z,29.30
2018-07-23T11:57:33.070Z,29.60
2018-07-23T12:00:03.358Z,29.70
2018-07-23T12:02:33.432Z,29.60
2018-07-23T12:05:03.566Z,30.00
2018-07-23T12:07:33.573Z,29.90
2018-07-23T12:10:03.889Z,29.70
2018-07-23T12:12:33.973Z,29.30
2018-07-23T12:15:04.170Z,29.60
2018-07-23T12:17:34.235Z,29.90
2018-07-23T12:20:04.374Z,29.50
2018-07-23T12:22:34.458Z,29.70
2018-07-23T12:25:04.814Z,29.60
2018-07-23T12:27:34.842Z,29.90
2018-07-23T12:30:05.331Z,29.90
2018-07-23T12:32:35.862Z,30.70
2018-07-23T12:35:06.069Z,30.80
2018-07-23T12:37:36.089Z,30.90
2018-07-23T12:40:06.279Z,30.60
2018-07-23T12:42:36.284Z,30.40
2018-07-23T12:45:06.609Z,30.00
2018-07-23T12:47:36.647Z,29.70
2018-07-23T12:50:06.821Z,29.70
2018-07-23T12:52:36.931Z,29.90
2018-07-23T12:55:06.963Z,29.90
2018-07-23T12:57:37.067Z,29.80
2018-07-23T13:00:07.846Z,29.80
2018-07-23T13:02:37.865Z,30.10
2018-07-23T13:05:07.957Z,30.30
2018-07-23T13:07:37.949Z,30.40
2018-07-23T13:10:08.197Z,30.50
2018-07-23T13:12:38.205Z,30.20
2018-07-23T13:15:08.337Z,30.60
2018-07-23T13:17:38.378Z,31.20
2018-07-23T13:20:08.490Z,30.80
2018-07-23T13:22:38.610Z,31.10
2018-07-23T13:25:08.779Z,31.20
2018-07-23T13:27:38.798Z,30.90
2018-07-23T13:30:08.982Z,30.20
2018-07-23T13:32:39.026Z,30.50
2018-07-23T13:35:13.310Z,30.80
2018-07-23T13:37:44.026Z,31.10
2018-07-23T13:40:14.093Z,31.20
2018-07-23T13:42:44.369Z,30.50
2018-07-23T13:45:14.562Z,30.40
2018-07-23T13:47:45.153Z,30.80
2018-07-23T13:50:15.245Z,31.10
2018-07-23T13:52:45.317Z,31.50
2018-07-23T13:55:15.333Z,31.80
2018-07-23T13:57:45.341Z,31.20
2018-07-23T14:00:15.396Z,31.30
2018-07-23T14:02:45.477Z,31.10
2018-07-23T14:05:15.565Z,30.70
2018-07-23T14:07:45.703Z,30.70
2018-07-23T14:10:16.070Z,31.10
2018-07-23T14:15:15.703Z,30.80
2018-07-23T14:17:45.989Z,30.80
2018-07-23T14:20:16.730Z,31.10
2018-07-23T14:22:46.909Z,31.80
2018-07-23T14:25:17.398Z,33.00
2018-07-23T14:27:47.410Z,33.00
2018-07-23T14:30:17.485Z,31.70
2018-07-23T14:32:47.771Z,31.30
2018-07-23T14:35:17.794Z,30.90
2018-07-23T14:37:50.418Z,30.80
2018-07-23T14:40:20.506Z,30.90
2018-07-23T14:42:50.639Z,31.50
2018-07-23T14:45:20.733Z,32.00
2018-07-23T14:47:50.850Z,32.20
2018-07-23T14:50:20.964Z,32.10
2018-07-23T14:52:51.421Z,31.70
2018-07-23T14:55:21.776Z,31.70
2018-07-23T15:00:23.750Z,31.20
2018-07-23T15:02:53.901Z,31.10
2018-07-23T15:05:24.006Z,31.00
2018-07-23T15:07:54.047Z,31.30
2018-07-23T15:10:24.147Z,31.40
2018-07-23T15:12:54.292Z,31.80
2018-07-23T15:15:24.442Z,32.00
2018-07-23T15:17:54.486Z,31.50
2018-07-23T15:20:24.598Z,31.40
2018-07-23T15:25:29.271Z,31.50
2018-07-23T15:27:59.290Z,31.20
2018-07-23T15:30:29.377Z,31.00
2018-07-23T15:32:59.450Z,31.10
2018-07-23T15:35:29.505Z,31.30
2018-07-23T15:38:00.170Z,31.30
2018-07-23T15:40:31.077Z,31.30
2018-07-23T15:43:01.182Z,31.70
2018-07-23T15:45:33.285Z,32.10
2018-07-23T15:48:04.058Z,31.70
2018-07-23T15:50:34.136Z,31.80
2018-07-23T15:53:04.163Z,32.50
2018-07-23T15:55:34.316Z,32.60
2018-07-23T15:58:04.960Z,31.90
2018-07-23T16:00:35.009Z,31.60
2018-07-23T16:03:05.163Z,31.50
2018-07-23T16:05:35.199Z,31.90
2018-07-23T16:08:05.317Z,31.70
2018-07-23T16:10:36.196Z,32.10
2018-07-23T16:13:06.229Z,32.30
2018-07-23T16:15:36.457Z,31.90
2018-07-23T16:18:07.353Z,31.80
2018-07-23T16:20:37.401Z,31.30
2018-07-23T16:23:07.491Z,31.00
2018-07-23T16:25:37.568Z,30.70
2018-07-23T16:30:37.221Z,30.90
2018-07-23T16:33:07.337Z,31.30
2018-07-23T16:35:37.390Z,31.30
2018-07-23T16:38:07.550Z,31.20
2018-07-23T16:40:37.610Z,30.90
2018-07-23T16:43:07.649Z,30.70
2018-07-23T16:45:38.140Z,30.90
2018-07-23T16:48:13.341Z,30.90
2018-07-23T16:50:43.754Z,30.40
2018-07-23T16:53:13.790Z,30.20
2018-07-23T16:58:13.445Z,30.70
2018-07-23T17:00:43.569Z,30.00
2018-07-23T17:03:13.618Z,29.50
2018-07-23T17:05:45.993Z,29.00
2018-07-23T17:08:16.876Z,29.10
2018-07-23T17:10:46.993Z,29.50
2018-07-23T17:13:17.020Z,29.30
2018-07-23T17:15:47.261Z,28.80
2018-07-23T17:18:17.349Z,28.40
2018-07-23T17:20:47.473Z,28.40
2018-07-23T17:25:47.100Z,29.60
2018-07-23T17:28:17.187Z,29.90
2018-07-23T17:30:47.301Z,30.10
2018-07-23T17:33:17.382Z,30.00
2018-07-23T17:35:47.424Z,29.90
2018-07-23T17:38:17.441Z,29.90
2018-07-23T17:40:47.629Z,30.00
2018-07-23T17:43:17.845Z,29.90
2018-07-23T17:45:47.946Z,30.00
2018-07-23T17:48:18.184Z,29.70
2018-07-23T17:50:56.689Z,29.40
2018-07-23T17:53:26.734Z,29.20
2018-07-23T17:56:05.281Z,29.00
2018-07-23T17:58:36.087Z,28.90
2018-07-23T18:01:06.321Z,28.50
2018-07-23T18:03:36.480Z,28.20
2018-07-23T18:06:07.127Z,28.00
2018-07-23T18:08:37.233Z,27.70
2018-07-23T18:11:07.422Z,27.40
2018-07-23T18:13:37.557Z,27.20
2018-07-23T18:16:07.697Z,26.70
2018-07-23T18:18:37.802Z,26.40
2018-07-23T18:21:07.973Z,26.10
2018-07-23T18:23:38.109Z,25.80
2018-07-23T18:26:08.293Z,25.50
2018-07-23T18:28:38.516Z,25.30
2018-07-23T18:35:02.361Z,25.00
2018-07-23T18:37:32.497Z,24.70
2018-07-23T18:40:02.614Z,24.50
2018-07-23T18:42:32.816Z,24.30
2018-07-23T18:45:02.833Z,24.20
2018-07-23T18:47:32.976Z,24.10
2018-07-23T18:50:02.991Z,24.00
2018-07-23T18:52:33.292Z,23.80
2018-07-23T18:55:03.337Z,23.70
2018-07-23T18:57:33.856Z,23.60
2018-07-23T19:00:04.010Z,23.70
2018-07-23T19:02:34.184Z,23.70
2018-07-23T19:05:04.421Z,23.70
2018-07-23T19:07:34.848Z,23.70
2018-07-23T19:10:05.565Z,23.50
2018-07-23T19:12:35.713Z,23.40
2018-07-23T19:15:07.114Z,23.30
2018-07-23T19:17:37.356Z,23.20
2018-07-23T19:20:07.479Z,23.20
2018-07-23T19:22:37.552Z,23.20
2018-07-23T19:25:08.066Z,23.20
2018-07-23T19:27:38.267Z,23.10
2018-07-23T19:30:08.479Z,23.00
2018-07-23T19:32:38.579Z,23.00
2018-07-23T19:35:14.724Z,22.90
2018-07-23T19:37:45.253Z,22.90
2018-07-23T19:40:15.292Z,22.80
2018-07-23T19:42:45.740Z,22.70
2018-07-23T19:45:15.777Z,22.60
2018-07-23T19:47:45.951Z,22.50
2018-07-23T19:50:16.045Z,22.50
2018-07-23T19:52:46.510Z,22.40
2018-07-23T19:55:16.573Z,22.40
2018-07-23T19:57:46.691Z,22.30
2018-07-23T20:00:16.829Z,22.20
2018-07-23T20:02:47.409Z,22.10
2018-07-23T20:05:17.447Z,22.10
2018-07-23T20:07:47.610Z,22.00
2018-07-23T20:10:17.725Z,22.00
2018-07-23T20:12:47.910Z,22.10
2018-07-23T20:15:17.984Z,22.10
2018-07-23T20:17:48.206Z,22.10
2018-07-23T20:20:18.316Z,22.00
2018-07-23T20:22:48.425Z,22.00
2018-07-23T20:25:18.558Z,21.80
2018-07-23T20:27:48.682Z,21.90
2018-07-23T20:30:18.794Z,21.90
2018-07-23T20:32:49.229Z,21.90
2018-07-23T20:35:19.433Z,21.90
2018-07-23T20:37:55.003Z,21.90
2018-07-23T20:40:25.158Z,21.80
2018-07-23T20:42:55.937Z,21.90
2018-07-23T20:45:26.077Z,21.90
2018-07-23T20:47:56.281Z,21.90
2018-07-23T20:50:26.752Z,21.90
2018-07-23T20:52:56.873Z,21.90
2018-07-23T20:55:27.016Z,21.90
2018-07-23T20:57:57.162Z,21.90
2018-07-23T21:00:27.323Z,21.90
2018-07-23T21:02:57.388Z,21.90
2018-07-23T21:05:27.405Z,21.90
2018-07-23T21:10:27.125Z,21.80
2018-07-23T21:12:57.257Z,21.80
2018-07-23T21:15:27.421Z,21.70
2018-07-23T21:17:57.577Z,21.70
2018-07-23T21:20:27.654Z,21.70
2018-07-23T21:22:57.765Z,21.70
2018-07-23T21:25:47.640Z,21.70
2018-07-23T21:28:17.741Z,21.60
2018-07-23T21:30:48.345Z,21.50
2018-07-23T21:33:18.518Z,21.40
2018-07-23T21:35:48.705Z,21.30
2018-07-23T21:38:18.954Z,21.20
2018-07-23T21:40:49.021Z,21.10
2018-07-23T21:43:19.121Z,21.00
2018-07-23T21:45:58.749Z,21.00
2018-07-23T21:48:28.971Z,20.90
2018-07-23T21:50:59.099Z,20.90
2018-07-23T21:53:29.215Z,20.80
2018-07-23T21:55:59.453Z,20.80
2018-07-23T21:58:29.929Z,20.70
2018-07-23T22:01:00.063Z,20.80
2018-07-23T22:03:30.133Z,20.70
2018-07-23T22:06:00.365Z,20.70
2018-07-23T22:08:30.559Z,20.70
2018-07-23T22:11:00.733Z,20.70
2018-07-23T22:13:30.821Z,20.70
2018-07-23T22:16:00.957Z,20.80
2018-07-23T22:18:52.811Z,20.70
2018-07-23T22:21:22.909Z,20.80
2018-07-23T22:23:53.013Z,20.80
2018-07-23T22:26:23.433Z,20.80
2018-07-23T22:28:53.629Z,20.80
2018-07-23T22:31:23.713Z,20.80
2018-07-23T22:33:53.817Z,20.80
2018-07-23T22:36:23.977Z,20.70
2018-07-23T22:38:54.073Z,20.50
2018-07-23T22:41:24.153Z,20.40
2018-07-23T22:43:54.261Z,20.40
2018-07-23T22:46:24.333Z,20.40
2018-07-23T22:48:54.436Z,20.40
2018-07-23T22:51:24.524Z,20.30
2018-07-23T22:54:00.656Z,20.30
2018-07-23T22:56:30.768Z,20.30
2018-07-23T22:59:00.838Z,20.20
2018-07-23T23:01:33.498Z,20.20
2018-07-23T23:04:07.128Z,20.20
2018-07-23T23:06:37.323Z,20.20
2018-07-23T23:09:10.144Z,20.20
2018-07-23T23:11:40.344Z,20.20
2018-07-23T23:14:10.528Z,20.20
2018-07-23T23:16:40.824Z,20.30
2018-07-23T23:19:11.140Z,20.40
2018-07-23T23:21:41.305Z,20.40
2018-07-23T23:24:11.811Z,20.40
2018-07-23T23:26:41.960Z,20.40
2018-07-23T23:31:56.509Z,20.40
2018-07-23T23:34:26.637Z,20.30
2018-07-23T23:36:56.780Z,20.20
2018-07-23T23:39:26.910Z,20.20
2018-07-23T23:41:57.082Z,20.20
2018-07-23T23:44:27.213Z,20.20
2018-07-23T23:46:57.492Z,20.20
2018-07-23T23:49:27.672Z,20.10
2018-07-23T23:52:04.202Z,20.00
2018-07-23T23:57:03.782Z,20.10
2018-07-23T23:59:33.917Z,20.10
